Saint Louis, Texas
Current Conditions -  °F | °C
As of 12:53 AM on Friday 31 Oct 2014 (Local Time) from KTYR Reporting Station
Clear Clear  
Wind Chill: 59°   Ceiling: Unl
Heat Index: 59°   Visibility: 10mi
Dew Point: 51°   Wind: 6mph
Humidity: 75%   Direction: 310°NW
Pressure: 30.13"   Gusts: NA
Location:  32.3248°N, 95.3025°W
Report Text: KTYR 310553Z 31005KT 10SM CLR 15/11 A3013 RMK AO2 SLP196 T01500106 10206 20150 402390094 51008
Loading
Personal Weather Stations






























Interactive Weather Map New forecast layout! Learn more

10-Day Weather Forecast

Advertisements
Track Severe Weather on mobile